Time,TemperatureF,DewpointF,PressureIn,WindDirection,WindDirectionDegrees,WindSpeedMPH,WindSpeedGustMPH,Humidity,HourlyPrecipIn,Conditions,Clouds,dailyrainin,SoftwareType,DateUTC
2013-07-12 00:02:00,73.0,61.0,30.02,East,80,8.0,12.0,65,-99.99,,,-99.99,,2013-07-12 05:02:00,
2013-07-12 00:11:00,73.0,61.0,30.02,East,80,7.0,11.0,65,-99.99,,,-99.99,,2013-07-12 05:11:00,
2013-07-12 00:22:00,73.0,61.0,30.02,East,80,7.0,11.0,65,-99.99,,,-99.99,,2013-07-12 05:22:00,
2013-07-12 00:32:00,73.0,60.0,30.02,East,90,8.0,14.0,65,-99.99,,,-99.99,,2013-07-12 05:32:00,
2013-07-12 00:43:00,72.0,60.0,30.02,East,95,7.0,13.0,66,-99.99,,,-99.99,,2013-07-12 05:43:00,
2013-07-12 01:01:00,72.0,60.0,30.03,East,95,10.0,14.0,67,-99.99,,,-99.99,,2013-07-12 06:01:00,
2013-07-12 01:11:00,72.0,60.0,30.02,East,95,9.0,12.0,66,-99.99,,,-99.99,,2013-07-12 06:11:00,
2013-07-12 01:22:00,72.0,60.0,30.02,East,95,9.0,12.0,66,-99.99,,,-99.99,,2013-07-12 06:22:00,
2013-07-12 01:33:00,71.0,59.0,30.03,ESE,105,12.0,15.0,65,-99.99,,,-99.99,,2013-07-12 06:33:00,
2013-07-12 01:42:00,71.0,59.0,30.03,ESE,110,10.0,14.0,66,-99.99,,,-99.99,,2013-07-12 06:42:00,
2013-07-12 02:02:00,70.0,59.0,30.04,ESE,110,7.0,13.0,68,-99.99,,,-99.99,,2013-07-12 07:02:00,
2013-07-12 02:12:00,70.0,59.0,30.04,East,100,7.0,13.0,68,-99.99,,,-99.99,,2013-07-12 07:12:00,
2013-07-12 02:22:00,70.0,59.0,30.04,East,100,7.0,13.0,68,-99.99,,,-99.99,,2013-07-12 07:22:00,
2013-07-12 02:32:00,69.0,59.0,30.04,ESE,120,7.0,10.0,70,-99.99,,,-99.99,,2013-07-12 07:32:00,
2013-07-12 02:43:00,69.0,58.0,30.04,ESE,115,6.0,9.0,70,-99.99,,,-99.99,,2013-07-12 07:43:00,
2013-07-12 03:01:00,68.0,58.0,30.04,ESE,120,6.0,10.0,72,-99.99,,,-99.99,,2013-07-12 08:01:00,
2013-07-12 03:11:00,68.0,58.0,30.04,ESE,115,6.0,10.0,72,-99.99,,,-99.99,,2013-07-12 08:11:00,
2013-07-12 03:21:00,68.0,58.0,30.04,ESE,115,6.0,10.0,72,-99.99,,,-99.99,,2013-07-12 08:21:00,
2013-07-12 03:32:00,67.0,58.0,30.04,ESE,115,6.0,11.0,72,-99.99,,,-99.99,,2013-07-12 08:32:00,
2013-07-12 03:42:00,67.0,58.0,30.04,ESE,120,6.0,10.0,73,-99.99,,,-99.99,,2013-07-12 08:42:00,
2013-07-12 04:02:00,67.0,58.0,30.04,SE,130,6.0,10.0,74,-99.99,,,-99.99,,2013-07-12 09:02:00,
2013-07-12 04:12:00,66.0,58.0,30.04,ESE,120,6.0,9.0,74,-99.99,,,-99.99,,2013-07-12 09:12:00,
2013-07-12 04:22:00,66.0,58.0,30.04,ESE,120,6.0,9.0,74,-99.99,,,-99.99,,2013-07-12 09:22:00,
2013-07-12 04:32:00,66.0,58.0,30.04,ESE,110,6.0,9.0,74,-99.99,,,-99.99,,2013-07-12 09:32:00,
2013-07-12 04:43:00,66.0,57.0,30.04,ESE,110,7.0,10.0,73,-99.99,,,-99.99,,2013-07-12 09:43:00,
2013-07-12 05:01:00,66.0,57.0,30.05,ESE,110,7.0,10.0,74,-99.99,,,-99.99,,2013-07-12 10:01:00,
2013-07-12 05:11:00,65.0,57.0,30.05,ESE,120,5.0,9.0,75,-99.99,,,-99.99,,2013-07-12 10:11:00,
2013-07-12 05:22:00,65.0,57.0,30.05,ESE,120,5.0,9.0,75,-99.99,,,-99.99,,2013-07-12 10:22:00,
2013-07-12 05:33:00,65.0,57.0,30.05,SE,125,7.0,10.0,75,-99.99,,,-99.99,,2013-07-12 10:33:00,
2013-07-12 05:42:00,65.0,57.0,30.05,SE,125,5.0,10.0,76,-99.99,,,-99.99,,2013-07-12 10:42:00,
2013-07-12 06:02:00,65.0,57.0,30.05,ESE,120,5.0,8.0,77,-99.99,,,-99.99,,2013-07-12 11:02:00,
2013-07-12 06:12:00,65.0,57.0,30.06,ESE,120,6.0,10.0,76,-99.99,,,-99.99,,2013-07-12 11:12:00,
2013-07-12 06:22:00,65.0,57.0,30.06,ESE,120,6.0,10.0,76,-99.99,,,-99.99,,2013-07-12 11:22:00,
2013-07-12 06:32:00,64.0,57.0,30.06,SE,130,5.0,7.0,76,-99.99,,,-99.99,,2013-07-12 11:32:00,
2013-07-12 06:43:00,64.0,57.0,30.06,SE,130,4.0,8.0,77,-99.99,,,-99.99,,2013-07-12 11:43:00,
2013-07-12 07:02:00,64.0,57.0,30.06,ESE,110,6.0,10.0,76,-99.99,,,-99.99,,2013-07-12 12:02:00,
2013-07-12 07:11:00,64.0,57.0,30.06,ESE,110,6.0,9.0,76,-99.99,,,-99.99,,2013-07-12 12:11:00,
2013-07-12 07:22:00,64.0,57.0,30.06,ESE,110,6.0,9.0,76,-99.99,,,-99.99,,2013-07-12 12:22:00,
2013-07-12 07:32:00,65.0,57.0,30.06,ESE,110,6.0,11.0,75,-99.99,,,-99.99,,2013-07-12 12:32:00,
2013-07-12 07:43:00,65.0,57.0,30.06,ESE,115,7.0,11.0,74,-99.99,,,-99.99,,2013-07-12 12:43:00,
2013-07-12 08:01:00,66.0,57.0,30.07,SE,125,6.0,12.0,72,-99.99,,,-99.99,,2013-07-12 13:01:00,
2013-07-12 08:12:00,67.0,58.0,30.08,ESE,115,7.0,13.0,72,-99.99,,,-99.99,,2013-07-12 13:12:00,
2013-07-12 08:22:00,67.0,58.0,30.08,ESE,115,7.0,13.0,72,-99.99,,,-99.99,,2013-07-12 13:22:00,
2013-07-12 08:32:00,68.0,57.0,30.08,SE,140,9.0,14.0,69,-99.99,,,-99.99,,2013-07-12 13:32:00,
2013-07-12 08:43:00,69.0,58.0,30.08,ESE,120,6.0,14.0,68,-99.99,,,-99.99,,2013-07-12 13:43:00,
2013-07-12 09:02:00,70.0,58.0,30.08,ESE,115,8.0,15.0,66,-99.99,,,-99.99,,2013-07-12 14:02:00,
2013-07-12 09:11:00,71.0,58.0,30.09,ESE,115,8.0,15.0,65,-99.99,,,-99.99,,2013-07-12 14:11:00,
2013-07-12 09:22:00,71.0,58.0,30.09,ESE,115,8.0,15.0,65,-99.99,,,-99.99,,2013-07-12 14:22:00,
2013-07-12 09:32:00,71.0,57.0,30.09,ESE,120,9.0,19.0,61,-99.99,,,-99.99,,2013-07-12 14:32:00,
2013-07-12 09:44:00,72.0,56.0,30.09,SE,145,12.0,19.0,59,-99.99,,,-99.99,,2013-07-12 14:44:00,
2013-07-12 10:02:00,72.0,56.0,30.09,SE,125,13.0,20.0,57,-99.99,,,-99.99,,2013-07-12 15:02:00,
2013-07-12 10:11:00,73.0,56.0,30.09,SSE,155,13.0,17.0,56,-99.99,,,-99.99,,2013-07-12 15:11:00,
2013-07-12 10:22:00,73.0,56.0,30.09,SSE,155,13.0,17.0,56,-99.99,,,-99.99,,2013-07-12 15:22:00,
2013-07-12 10:33:00,74.0,57.0,30.08,ESE,115,11.0,18.0,56,-99.99,,,-99.99,,2013-07-12 15:33:00,
2013-07-12 10:43:00,74.0,56.0,30.09,SE,125,9.0,21.0,53,-99.99,,,-99.99,,2013-07-12 15:43:00,
2013-07-12 11:01:00,74.0,55.0,30.08,SSE,150,14.0,18.0,51,-99.99,,,-99.99,,2013-07-12 16:01:00,
2013-07-12 11:11:00,75.0,55.0,30.08,SE,135,13.0,18.0,51,-99.99,,,-99.99,,2013-07-12 16:11:00,
2013-07-12 11:22:00,75.0,55.0,30.08,SE,135,13.0,18.0,51,-99.99,,,-99.99,,2013-07-12 16:22:00,
2013-07-12 11:32:00,76.0,57.0,30.08,SSE,155,11.0,15.0,52,-99.99,,,-99.99,,2013-07-12 16:32:00,
2013-07-12 11:43:00,76.0,57.0,30.08,SSE,155,11.0,16.0,52,-99.99,,,-99.99,,2013-07-12 16:43:00,
2013-07-12 12:06:00,77.0,56.0,30.07,East,85,9.0,17.0,49,-99.99,,,-99.99,,2013-07-12 17:06:00,
2013-07-12 12:14:00,77.0,56.0,30.07,East,85,13.0,19.0,48,-99.99,,,-99.99,,2013-07-12 17:14:00,
2013-07-12 12:24:00,77.0,56.0,30.07,East,85,13.0,19.0,48,-99.99,,,-99.99,,2013-07-12 17:24:00,
2013-07-12 12:37:00,77.0,57.0,30.07,ESE,120,7.0,18.0,49,-99.99,,,-99.99,,2013-07-12 17:37:00,
2013-07-12 12:45:00,78.0,56.0,30.07,SE,145,10.0,17.0,48,-99.99,,,-99.99,,2013-07-12 17:45:00,
2013-07-12 13:07:00,79.0,57.0,30.06,SE,125,10.0,15.0,48,-99.99,,,-99.99,,2013-07-12 18:07:00,
2013-07-12 13:14:00,80.0,58.0,30.06,ESE,115,8.0,13.0,47,-99.99,,,-99.99,,2013-07-12 18:14:00,
2013-07-12 13:27:00,80.0,58.0,30.06,ESE,115,8.0,13.0,47,-99.99,,,-99.99,,2013-07-12 18:27:00,
2013-07-12 13:34:00,80.0,56.0,30.06,SE,145,9.0,13.0,44,-99.99,,,-99.99,,2013-07-12 18:34:00,
2013-07-12 13:48:00,80.0,56.0,30.06,ESE,120,7.0,16.0,45,-99.99,,,-99.99,,2013-07-12 18:48:00,
2013-07-12 14:05:00,80.0,56.0,30.06,East,90,10.0,16.0,43,-99.99,,,-99.99,,2013-07-12 19:05:00,
2013-07-12 14:15:00,81.0,57.0,30.06,East,100,8.0,13.0,45,-99.99,,,-99.99,,2013-07-12 19:15:00,
2013-07-12 14:33:00,82.0,57.0,30.06,ESE,110,5.0,13.0,43,-99.99,,,-99.99,,2013-07-12 19:33:00,
2013-07-12 14:46:00,82.0,54.0,30.05,SE,140,9.0,15.0,38,-99.99,,,-99.99,,2013-07-12 19:46:00,
2013-07-12 15:13:00,83.0,54.0,30.03,ESE,110,11.0,14.0,37,-99.99,,,-99.99,,2013-07-12 20:13:00,
2013-07-12 15:24:00,83.0,54.0,30.03,ESE,110,11.0,14.0,37,-99.99,,,-99.99,,2013-07-12 20:24:00,
2013-07-12 15:34:00,83.0,52.0,30.03,ESE,115,7.0,17.0,35,-99.99,,,-99.99,,2013-07-12 20:34:00,
2013-07-12 16:03:00,84.0,53.0,30.03,SE,130,9.0,14.0,34,-99.99,,,-99.99,,2013-07-12 21:03:00,
2013-07-12 16:15:00,84.0,53.0,30.03,SE,145,10.0,15.0,34,-99.99,,,-99.99,,2013-07-12 21:15:00,
2013-07-12 16:25:00,84.0,53.0,30.03,SE,145,10.0,15.0,34,-99.99,,,-99.99,,2013-07-12 21:25:00,
2013-07-12 16:35:00,85.0,53.0,30.03,ESE,115,8.0,14.0,33,-99.99,,,-99.99,,2013-07-12 21:35:00,
2013-07-12 16:46:00,86.0,54.0,30.02,East,100,8.0,13.0,34,-99.99,,,-99.99,,2013-07-12 21:46:00,
2013-07-12 17:04:00,86.0,51.0,30.02,East,95,7.0,14.0,30,-99.99,,,-99.99,,2013-07-12 22:04:00,
2013-07-12 17:17:00,85.0,52.0,30.02,ESE,110,5.0,12.0,32,-99.99,,,-99.99,,2013-07-12 22:17:00,
2013-07-12 17:33:00,86.0,53.0,30.02,ESE,110,10.0,14.0,32,-99.99,,,-99.99,,2013-07-12 22:33:00,
2013-07-12 17:44:00,86.0,51.0,30.01,ESE,110,7.0,14.0,30,-99.99,,,-99.99,,2013-07-12 22:44:00,
2013-07-12 18:04:00,86.0,52.0,30.01,ESE,115,5.0,10.0,31,-99.99,,,-99.99,,2013-07-12 23:04:00,
2013-07-12 18:13:00,85.0,51.0,30.01,SE,130,8.0,11.0,31,-99.99,,,-99.99,,2013-07-12 23:13:00,
2013-07-12 18:35:00,86.0,51.0,30.00,ESE,110,4.0,10.0,30,-99.99,,,-99.99,,2013-07-12 23:35:00,
2013-07-12 18:43:00,86.0,49.0,30.00,ESE,115,9.0,12.0,28,-99.99,,,-99.99,,2013-07-12 23:43:00,
2013-07-12 19:17:00,86.0,53.0,30.00,ENE,65,7.0,11.0,33,-99.99,,,-99.99,,2013-07-13 00:17:00,
2013-07-12 19:25:00,86.0,53.0,30.00,ENE,65,7.0,11.0,33,-99.99,,,-99.99,,2013-07-13 00:25:00,
2013-07-12 19:33:00,85.0,53.0,30.00,ENE,65,5.0,10.0,34,-99.99,,,-99.99,,2013-07-13 00:33:00,
2013-07-12 19:46:00,85.0,53.0,30.00,ENE,65,5.0,10.0,34,-99.99,,,-99.99,,2013-07-13 00:46:00,
2013-07-12 20:04:00,83.0,53.0,30.00,NE,55,6.0,9.0,35,-99.99,,,-99.99,,2013-07-13 01:04:00,
2013-07-12 20:13:00,83.0,53.0,30.00,ENE,65,7.0,9.0,36,-99.99,,,-99.99,,2013-07-13 01:13:00,
2013-07-12 20:24:00,83.0,53.0,30.00,ENE,65,7.0,9.0,36,-99.99,,,-99.99,,2013-07-13 01:24:00,
2013-07-12 20:47:00,80.0,54.0,30.01,ENE,65,5.0,7.0,41,-99.99,,,-99.99,,2013-07-13 01:47:00,
2013-07-12 21:05:00,79.0,54.0,30.01,ENE,65,3.0,5.0,42,-99.99,,,-99.99,,2013-07-13 02:05:00,
2013-07-12 21:14:00,78.0,53.0,30.01,ENE,75,4.0,6.0,42,-99.99,,,-99.99,,2013-07-13 02:14:00,
2013-07-12 21:46:00,77.0,53.0,30.00,East,80,4.0,7.0,44,-99.99,,,-99.99,,2013-07-13 02:46:00,
2013-07-12 21:53:00,76.0,55.0,30.01,East,90,3.0,7.0,47,-99.99,,,-99.99,,2013-07-13 02:53:00,
2013-07-12 22:05:00,76.0,55.0,30.01,East,90,3.0,7.0,47,-99.99,,,-99.99,,2013-07-13 03:05:00,
2013-07-12 22:13:00,75.0,54.0,30.01,ENE,75,4.0,6.0,48,-99.99,,,-99.99,,2013-07-13 03:13:00,
2013-07-12 22:27:00,75.0,54.0,30.01,ENE,75,4.0,6.0,48,-99.99,,,-99.99,,2013-07-13 03:27:00,
2013-07-12 22:37:00,75.0,55.0,30.02,ENE,75,2.0,5.0,49,-99.99,,,-99.99,,2013-07-13 03:37:00,
2013-07-12 22:45:00,74.0,54.0,30.02,East,95,2.0,4.0,50,-99.99,,,-99.99,,2013-07-13 03:45:00,
2013-07-12 22:55:00,74.0,54.0,30.02,East,100,4.0,8.0,50,-99.99,,,-99.99,,2013-07-13 03:55:00,
2013-07-12 23:01:00,74.0,54.0,30.02,East,100,4.0,8.0,50,-99.99,,,-99.99,,2013-07-13 04:01:00,
2013-07-12 23:12:00,73.0,54.0,30.02,East,80,6.0,11.0,51,-99.99,,,-99.99,,2013-07-13 04:12:00,
2013-07-12 23:32:00,74.0,53.0,30.02,ESE,110,7.0,11.0,48,-99.99,,,-99.99,,2013-07-13 04:32:00,
2013-07-12 23:43:00,73.0,52.0,30.02,East,100,6.0,11.0,48,-99.99,,,-99.99,,2013-07-13 04:43:00,